McConnell Air Force Base, KS (67221)

10:00 PM CDT on August 30, 2014 (GMT -0500)
Longbranch Mobile Home Park | Change Station
CLOSE
Current Station
Personal Weather Station
Location: Derby, KS
Elevation: 1358 ft
Nearby Weather Stations

Elev 1358 ft 37.61 °N, 97.22 °W | Updated 13 minutes ago

Clear
Clear
77.8 °F
Feels Like 80 °F
N
1.0
Wind Variable Wind from South
Gusts 2.0 mph

Today
High -- | Low -- °F
--% Chance of Precip.
Yesterday
High -- | Low -- °F
Precip. -- in
6:57 AM 8:00 PM
Waxing Crescent, 27% visible
Pressure 29.87 in
Visibility 10.0 miles
Clouds Clear
Heat Index 80 °F
Dew Point 64 °F
Humidity 63%
Rainfall 0.00 in
Snow Depth Not available.
UV 0 out of 12
Pollen 10.90 out of 12
Air Quality Not available.
Flu Activity Not available.
METAR KIAB 310258Z AUTO 14006KT 10SM CLR 25/17 A2990 RMK AO2 SLP114 T02470170 53002

More Conditions Fewer Conditions

Pressure 29.87 in
Visibility 10.0 miles
Clouds Clear
Heat Index 80 °F
Dew Point 64 °F
Humidity 63%
Rainfall 0.00 in
Snow Depth Not available.
UV 0 out of 12
Pollen 10.90 out of 12
Air Quality Not available.
Flu Activity Not available.
METAR KIAB 310258Z AUTO 14006KT 10SM CLR 25/17 A2990 RMK AO2 SLP114 T02470170 53002

More Conditions Fewer Conditions

10-Day Weather Forecast

Almanac

Astronomy

Aug. 30, 2014 Rise Set
Actual Time 6:57 AM CDT 8:00 PM CDT
Civil Twilight 6:30 AM CDT 8:27 PM CDT
Nautical Twilight 5:58 AM CDT 8:59 PM CDT
Astronomical Twilight 5:25 AM CDT 9:32 PM CDT
Moon 11:40 AM CDT (8/30) 10:42 PM CDT (8/30)
Length of Visible Light 13h 57m
Length of Day
13h 03m
Tomorrow will be 2m 19s shorter.
Waxing Crescent, 27% of the Moon is Illuminated
Today
Waxing Crescent
Sep 2
First Quarter
Sep 8
Full
Sep 15
Last Quarter
Sep 24
New

Today's Extremes

State Highs State Lows

Community

WunderPhotos

Upload Photos

1,748,754 photos uploaded!

Nearby

Snow Depth

Station Depth Elevation
No new snow has been reported.

Earthquake Activity

City Distance Mag. Time & Date
Guthrie, Oklahoma 124 miles 3.2 10:39 AM CDT
2014-08-29
Perry, Oklahoma 99 miles 3.0 4:52 AM CDT
2014-08-29
Perry, Oklahoma 98 miles 3.1 10:01 PM CDT
2014-08-28
Minimum magnitude displayed is 2.5.

Coastal Water Temperatures

Place Temperature
No Stations Reporting

Nearby Weather Stations